Flugplatz Lüneburg

Für EDHG sind keine METAR/TAF Berichte vorhanden.
Es werden die Flugwettermeldungen vom Flugplatz Fassberg Airport in 40 km Entfernung angezeigt.

Bericht für ETHS

vom 20.09. um 14:20 UTC

Wind 9 kt aus 100°

Sichtweite 10 km oder mehr

gering bewölkt in 28000 ft

Temperatur 22.0°C

Taupunkt 6.0°C

Luftfeuchtigkeit 35%

Luftdruck 1018 hPa

ETHS 201420Z 10009KT 9999 FEW280 22/06 Q1018 BLU+
Keine Prognose (TAF) verfügbar.
Impressum